createdAt,value
2023-02-12T00:02:04.492Z,38.18
2023-02-12T00:04:33.120Z,38.29
2023-02-12T00:07:03.176Z,37.84
2023-02-12T00:09:31.760Z,38.21
2023-02-12T00:12:00.482Z,38.22
2023-02-12T00:14:29.444Z,38.15
2023-02-12T00:16:57.681Z,38.22
2023-02-12T00:19:26.936Z,38.14
2023-02-12T00:21:55.144Z,38.06
2023-02-12T00:24:25.257Z,37.85
2023-02-12T00:26:53.578Z,38.08
2023-02-12T00:29:22.130Z,38.26
2023-02-12T00:31:50.797Z,38.31
2023-02-12T00:34:19.490Z,38.12
2023-02-12T00:36:47.870Z,38.22
2023-02-12T00:39:16.614Z,38.37
2023-02-12T00:41:46.528Z,38.31
2023-02-12T00:44:15.324Z,38.47
2023-02-12T00:46:43.737Z,38.22
2023-02-12T00:49:12.729Z,38.27
2023-02-12T00:51:41.150Z,38.41
2023-02-12T00:54:09.952Z,38.41
2023-02-12T00:56:38.173Z,38.28
2023-02-12T00:59:08.327Z,38.15
2023-02-12T01:01:37.109Z,38.07
2023-02-12T01:04:06.031Z,38.36
2023-02-12T01:06:34.613Z,38.40
2023-02-12T01:09:03.373Z,38.38
2023-02-12T01:11:31.718Z,38.57
2023-02-12T01:14:01.162Z,38.44
2023-02-12T01:16:33.860Z,38.24
2023-02-12T01:19:02.911Z,38.33
2023-02-12T01:21:33.477Z,38.01
2023-02-12T01:24:02.304Z,37.91
2023-02-12T01:26:31.817Z,37.91
2023-02-12T01:29:02.517Z,37.85
2023-02-12T01:31:34.296Z,37.53
2023-02-12T01:34:03.164Z,37.69
2023-02-12T01:36:31.869Z,37.73
2023-02-12T01:39:03.076Z,37.82
2023-02-12T01:41:33.736Z,37.69
2023-02-12T01:44:08.897Z,37.55
2023-02-12T01:46:39.001Z,37.77
2023-02-12T01:49:10.335Z,37.91
2023-02-12T01:51:39.120Z,37.83
2023-02-12T01:54:09.123Z,37.80
2023-02-12T01:56:38.533Z,38.17
2023-02-12T01:59:07.200Z,38.26
2023-02-12T02:01:36.150Z,38.32
2023-02-12T02:04:08.622Z,37.70
2023-02-12T02:06:41.371Z,38.02
2023-02-12T02:09:10.354Z,38.47
2023-02-12T02:11:55.958Z,38.35
2023-02-12T02:14:33.781Z,38.20
2023-02-12T02:17:21.917Z,37.31
2023-02-12T02:20:19.705Z,37.29
2023-02-12T02:22:52.597Z,37.88
2023-02-12T02:25:56.283Z,37.61
2023-02-12T02:28:38.261Z,37.55
2023-02-12T02:31:12.948Z,37.87
2023-02-12T02:33:47.473Z,37.79
2023-02-12T02:36:25.834Z,37.91
2023-02-12T02:38:57.408Z,37.82
2023-02-12T02:41:30.832Z,37.05
2023-02-12T02:43:59.820Z,37.99
2023-02-12T02:46:35.010Z,37.60
2023-02-12T02:49:06.507Z,37.73
2023-02-12T02:51:38.972Z,37.79
2023-02-12T02:54:11.201Z,37.68
2023-02-12T02:56:41.250Z,37.83
2023-02-12T02:59:12.476Z,37.63
2023-02-12T03:01:44.364Z,37.54
2023-02-12T03:04:17.950Z,37.77
2023-02-12T03:06:50.062Z,38.00
2023-02-12T03:09:22.675Z,37.52
2023-02-12T03:11:51.776Z,37.94
2023-02-12T03:14:23.898Z,37.57
2023-02-12T03:16:57.110Z,37.59
2023-02-12T03:19:27.339Z,37.80
2023-02-12T03:21:59.460Z,37.55
2023-02-12T03:24:30.664Z,37.81
2023-02-12T03:27:10.024Z,37.28
2023-02-12T03:29:39.087Z,37.67
2023-02-12T03:32:18.345Z,37.22
2023-02-12T03:34:50.631Z,37.18
2023-02-12T03:37:23.575Z,37.40
2023-02-12T03:39:56.559Z,37.52
2023-02-12T03:42:32.475Z,37.34
2023-02-12T03:45:04.172Z,37.33
2023-02-12T03:47:41.342Z,37.13
2023-02-12T03:50:14.198Z,37.10
2023-02-12T03:52:43.485Z,37.43
2023-02-12T03:55:12.946Z,37.33
2023-02-12T03:57:44.141Z,37.28
2023-02-12T04:00:15.807Z,36.99
2023-02-12T04:02:46.191Z,37.12
2023-02-12T04:05:19.248Z,36.62
2023-02-12T04:07:48.557Z,37.03
2023-02-12T04:10:17.250Z,36.70
2023-02-12T04:12:54.398Z,35.28
2023-02-12T04:15:46.735Z,35.41
2023-02-12T04:18:21.456Z,36.07
2023-02-12T04:20:55.366Z,35.94
2023-02-12T04:23:43.697Z,35.94
2023-02-12T04:26:19.090Z,36.27
2023-02-12T04:28:52.312Z,36.32
2023-02-12T04:31:25.272Z,36.48
2023-02-12T04:34:02.057Z,36.16
2023-02-12T04:36:34.955Z,36.36
2023-02-12T04:39:06.318Z,36.61
2023-02-12T04:41:34.999Z,36.58
2023-02-12T04:44:19.294Z,35.59
2023-02-12T04:46:47.772Z,36.48
2023-02-12T04:49:19.527Z,36.11
2023-02-12T04:51:47.781Z,34.88
2023-02-12T04:54:17.323Z,36.11
2023-02-12T04:56:46.557Z,36.32
2023-02-12T04:59:15.861Z,36.25
2023-02-12T05:01:45.665Z,36.23
2023-02-12T05:04:16.364Z,36.26
2023-02-12T05:06:47.222Z,36.08
2023-02-12T05:09:18.227Z,36.24
2023-02-12T05:11:46.887Z,36.09
2023-02-12T05:14:16.520Z,36.16
2023-02-12T05:16:45.219Z,35.92
2023-02-12T05:19:13.831Z,35.81
2023-02-12T05:21:42.206Z,35.65
2023-02-12T05:24:12.718Z,35.60
2023-02-12T05:26:40.919Z,35.74
2023-02-12T05:29:09.610Z,35.55
2023-02-12T05:31:37.939Z,35.67
2023-02-12T05:34:08.551Z,35.51
2023-02-12T05:36:37.168Z,35.50
2023-02-12T05:39:07.546Z,35.59
2023-02-12T05:41:37.269Z,35.31
2023-02-12T05:44:06.713Z,35.52
2023-02-12T05:46:35.346Z,35.46
2023-02-12T05:49:03.870Z,35.49
2023-02-12T05:51:33.389Z,35.38
2023-02-12T05:54:04.753Z,35.18
2023-02-12T05:56:34.533Z,35.28
2023-02-12T05:59:07.197Z,34.74
2023-02-12T06:01:37.300Z,35.06
2023-02-12T06:04:07.847Z,35.19
2023-02-12T06:06:36.698Z,35.11
2023-02-12T06:09:05.536Z,34.93
2023-02-12T06:11:33.744Z,35.28
2023-02-12T06:14:05.024Z,34.90
2023-02-12T06:16:33.808Z,35.37
2023-02-12T06:19:04.019Z,35.44
2023-02-12T06:21:32.871Z,35.26
2023-02-12T06:24:01.805Z,35.12
2023-02-12T06:26:30.492Z,35.04
2023-02-12T06:28:59.050Z,34.79
2023-02-12T06:31:30.903Z,34.37
2023-02-12T06:34:01.947Z,34.53
2023-02-12T06:36:30.488Z,34.16
2023-02-12T06:38:58.968Z,34.28
2023-02-12T06:41:28.070Z,34.24
2023-02-12T06:43:56.530Z,34.28
2023-02-12T06:46:25.147Z,34.21
2023-02-12T06:48:55.839Z,33.95
2023-02-12T06:51:24.123Z,34.01
2023-02-12T06:53:53.511Z,33.99
2023-02-12T06:56:23.188Z,33.79
2023-02-12T06:58:55.079Z,33.19
2023-02-12T07:01:25.355Z,33.07
2023-02-12T07:03:57.358Z,32.70
2023-02-12T07:06:26.942Z,32.49
2023-02-12T07:08:55.895Z,32.14
2023-02-12T07:11:25.581Z,31.87
2023-02-12T07:13:54.118Z,31.58
2023-02-12T07:16:22.727Z,31.66
2023-02-12T07:18:51.647Z,31.65
2023-02-12T07:21:21.437Z,31.38
2023-02-12T07:23:51.572Z,31.08
2023-02-12T07:26:21.546Z,30.55
2023-02-12T07:28:50.466Z,28.78
2023-02-12T07:31:20.343Z,25.93
2023-02-12T07:33:49.255Z,23.75
2023-02-12T07:36:19.758Z,21.85
2023-02-12T07:38:50.073Z,20.62
2023-02-12T07:41:20.724Z,19.60
2023-02-12T07:43:50.598Z,19.49
2023-02-12T07:46:20.907Z,18.68
2023-02-12T07:48:49.995Z,17.31
2023-02-12T07:51:20.061Z,15.78
2023-02-12T07:53:50.444Z,15.01
2023-02-12T07:56:21.142Z,14.33
2023-02-12T07:58:51.196Z,14.90
2023-02-12T08:01:21.535Z,15.87
2023-02-12T08:03:51.891Z,17.54
2023-02-12T08:06:23.086Z,18.38
2023-02-12T08:08:54.195Z,18.87
2023-02-12T08:11:23.115Z,19.47
2023-02-12T08:13:52.095Z,20.20
2023-02-12T08:16:22.485Z,20.25
2023-02-12T08:18:51.813Z,19.98
2023-02-12T08:21:21.685Z,20.37
2023-02-12T08:23:51.107Z,20.41
2023-02-12T08:26:22.871Z,19.82
2023-02-12T08:28:53.637Z,19.62
2023-02-12T08:31:23.449Z,19.67
2023-02-12T08:33:53.665Z,19.75
2023-02-12T08:36:24.124Z,19.94
2023-02-12T08:38:53.198Z,20.17
2023-02-12T08:41:24.825Z,19.69
2023-02-12T08:43:55.159Z,19.09
2023-02-12T08:46:25.650Z,18.92
2023-02-12T08:48:55.584Z,18.66
2023-02-12T08:51:26.208Z,18.21
2023-02-12T08:53:56.659Z,18.00
2023-02-12T08:56:27.438Z,17.54
2023-02-12T08:58:56.000Z,17.18
2023-02-12T09:01:26.630Z,17.12
2023-02-12T09:03:55.349Z,17.15
2023-02-12T09:06:25.863Z,16.30
2023-02-12T09:08:56.030Z,16.11
2023-02-12T09:11:30.870Z,16.93
2023-02-12T09:14:01.087Z,17.17
2023-02-12T09:16:30.896Z,15.48
2023-02-12T09:18:59.953Z,14.69
2023-02-12T09:21:31.374Z,14.77
2023-02-12T09:24:00.117Z,15.61
2023-02-12T09:26:29.784Z,16.46
2023-02-12T09:28:58.382Z,15.07
2023-02-12T09:31:29.239Z,12.41
2023-02-12T09:34:01.040Z,10.97
2023-02-12T09:36:29.280Z,9.32
2023-02-12T09:38:59.542Z,8.69
2023-02-12T09:42:09.279Z,8.54
2023-02-12T09:44:43.488Z,9.82
2023-02-12T09:47:16.800Z,8.61
2023-02-12T09:50:23.955Z,8.02
2023-02-12T09:52:52.682Z,7.78
2023-02-12T09:55:21.566Z,7.09
2023-02-12T09:57:54.411Z,6.30
2023-02-12T10:00:28.121Z,6.17
2023-02-12T10:02:56.732Z,5.68
2023-02-12T10:05:29.075Z,5.26
2023-02-12T10:08:33.629Z,5.37
2023-02-12T10:11:12.554Z,5.55
2023-02-12T10:13:49.545Z,4.80
2023-02-12T10:16:28.072Z,4.53
2023-02-12T10:19:15.328Z,4.71
2023-02-12T10:21:52.564Z,4.60
2023-02-12T10:24:31.357Z,3.64
2023-02-12T10:27:02.240Z,4.01
2023-02-12T10:29:35.575Z,3.80
2023-02-12T10:32:07.329Z,3.59
2023-02-12T10:34:37.656Z,3.83
2023-02-12T10:37:06.987Z,3.61
2023-02-12T10:39:37.932Z,3.93
2023-02-12T10:42:13.685Z,3.50
2023-02-12T10:44:43.427Z,3.45
2023-02-12T10:47:16.279Z,3.21
2023-02-12T10:49:44.630Z,3.02
2023-02-12T10:52:19.440Z,2.77
2023-02-12T10:54:49.656Z,3.47
2023-02-12T10:57:21.565Z,2.69
2023-02-12T10:59:53.378Z,3.68
2023-02-12T11:02:26.328Z,4.09
2023-02-12T11:04:56.412Z,3.83
2023-02-12T11:07:26.623Z,3.86
2023-02-12T11:09:56.924Z,3.63
2023-02-12T11:12:33.254Z,3.31
2023-02-12T11:15:05.411Z,3.24
2023-02-12T11:17:37.479Z,3.27
2023-02-12T11:20:22.707Z,3.02
2023-02-12T11:22:53.399Z,2.87
2023-02-12T11:25:23.636Z,3.31
2023-02-12T11:28:05.312Z,3.05
2023-02-12T11:30:35.815Z,3.41
2023-02-12T11:33:17.884Z,3.10
2023-02-12T11:35:53.922Z,3.71
2023-02-12T11:38:28.642Z,4.26
2023-02-12T11:41:00.792Z,5.22
2023-02-12T11:43:31.203Z,5.76
2023-02-12T11:46:02.182Z,6.50
2023-02-12T11:48:33.419Z,7.26
2023-02-12T11:51:02.424Z,6.87
2023-02-12T11:53:32.792Z,6.55
2023-02-12T11:56:03.761Z,6.43
2023-02-12T11:58:33.230Z,6.65
2023-02-12T12:01:12.303Z,5.96
2023-02-12T12:03:47.132Z,5.60
2023-02-12T12:06:23.506Z,6.01
2023-02-12T12:08:57.462Z,7.65
2023-02-12T12:11:30.028Z,9.18
2023-02-12T12:14:01.014Z,9.78
2023-02-12T12:16:50.504Z,11.13
2023-02-12T12:19:39.291Z,12.10
2023-02-12T12:22:15.696Z,13.15
2023-02-12T12:24:48.996Z,14.34
2023-02-12T12:27:46.510Z,14.97
2023-02-12T12:30:22.176Z,15.69
2023-02-12T12:32:54.444Z,16.00
2023-02-12T12:35:28.393Z,16.56
2023-02-12T12:38:00.033Z,16.90
2023-02-12T12:40:40.124Z,17.35
2023-02-12T12:43:13.002Z,18.14
2023-02-12T12:46:01.649Z,18.32
2023-02-12T12:48:45.608Z,18.34
2023-02-12T12:51:24.848Z,18.50
2023-02-12T12:54:05.228Z,18.81
2023-02-12T12:56:46.989Z,19.52
2023-02-12T12:59:44.025Z,20.26
2023-02-12T13:02:38.358Z,20.50
2023-02-12T13:05:41.240Z,20.65
2023-02-12T13:08:18.993Z,20.90
2023-02-12T13:10:49.881Z,21.44
2023-02-12T13:13:30.605Z,21.62
2023-02-12T13:16:06.612Z,21.81
2023-02-12T13:18:49.217Z,21.42
2023-02-12T13:21:31.008Z,21.84
2023-02-12T13:24:04.799Z,21.53
2023-02-12T13:26:43.178Z,21.71
2023-02-12T13:29:16.696Z,21.51
2023-02-12T13:31:49.608Z,21.46
2023-02-12T13:34:20.060Z,21.99
2023-02-12T13:36:50.885Z,21.52
2023-02-12T13:39:27.003Z,21.50
2023-02-12T13:42:03.531Z,21.73
2023-02-12T13:44:37.322Z,21.92
2023-02-12T13:47:12.555Z,21.64
2023-02-12T13:49:46.130Z,22.11
2023-02-12T13:52:22.822Z,21.66
2023-02-12T13:54:59.607Z,21.89
2023-02-12T13:57:28.054Z,22.06
2023-02-12T13:59:58.345Z,22.24
2023-02-12T14:02:45.228Z,21.85
2023-02-12T14:05:27.191Z,22.53
2023-02-12T14:07:57.291Z,22.32
2023-02-12T14:10:29.469Z,22.63
2023-02-12T14:13:08.824Z,22.86
2023-02-12T14:15:39.444Z,22.85
2023-02-12T14:18:23.924Z,23.12
2023-02-12T14:21:25.630Z,23.15
2023-02-12T14:23:55.678Z,23.42
2023-02-12T14:26:25.177Z,23.62
2023-02-12T14:28:54.928Z,24.00
2023-02-12T14:31:40.974Z,23.92
2023-02-12T14:35:14.450Z,23.81
2023-02-12T14:37:58.348Z,24.46
2023-02-12T14:40:56.625Z,24.40
2023-02-12T14:43:56.449Z,24.94
2023-02-12T14:46:55.544Z,24.78
2023-02-12T14:49:44.966Z,25.49
2023-02-12T14:52:20.745Z,25.20
2023-02-12T14:54:51.542Z,25.69
2023-02-12T14:57:27.805Z,25.59
2023-02-12T14:59:58.044Z,26.10
2023-02-12T15:02:28.536Z,25.70
2023-02-12T15:05:01.290Z,25.80
2023-02-12T15:07:33.273Z,25.46
2023-02-12T15:10:10.237Z,26.01
2023-02-12T15:12:42.902Z,25.94
2023-02-12T15:15:17.732Z,26.10
2023-02-12T15:17:58.157Z,26.26
2023-02-12T15:20:32.790Z,26.62
2023-02-12T15:23:03.374Z,26.98
2023-02-12T15:25:34.137Z,26.80
2023-02-12T15:28:07.584Z,26.79
2023-02-12T15:30:37.661Z,26.91
2023-02-12T15:33:08.383Z,27.18
2023-02-12T15:35:38.937Z,27.24
2023-02-12T15:38:08.728Z,27.61
2023-02-12T15:40:37.422Z,27.66
2023-02-12T15:43:08.673Z,27.61
2023-02-12T15:45:40.101Z,27.76
2023-02-12T15:48:18.635Z,27.59
2023-02-12T15:50:51.055Z,27.99
2023-02-12T15:53:19.619Z,28.40
2023-02-12T15:55:49.677Z,28.46
2023-02-12T15:58:25.376Z,28.63
2023-02-12T16:00:54.864Z,29.34
2023-02-12T16:03:24.882Z,29.55
2023-02-12T16:05:54.810Z,29.29
2023-02-12T16:08:24.654Z,29.57
2023-02-12T16:10:54.829Z,29.92
2023-02-12T16:13:28.548Z,29.50
2023-02-12T16:16:08.709Z,29.41
2023-02-12T16:18:37.255Z,29.80
2023-02-12T16:21:08.699Z,30.05
2023-02-12T16:23:37.306Z,30.23
2023-02-12T16:26:06.349Z,30.34
2023-02-12T16:28:36.441Z,30.10
2023-02-12T16:31:11.483Z,29.80
2023-02-12T16:33:47.986Z,29.72
2023-02-12T16:36:30.485Z,29.35
2023-02-12T16:39:01.154Z,29.85
2023-02-12T16:41:31.910Z,29.63
2023-02-12T16:44:26.752Z,29.15
2023-02-12T16:46:57.319Z,29.98
2023-02-12T16:49:27.245Z,30.11
2023-02-12T16:52:36.455Z,29.59
2023-02-12T16:55:05.757Z,30.41
2023-02-12T16:57:34.295Z,30.41
2023-02-12T17:00:04.881Z,30.39
2023-02-12T17:02:33.938Z,30.52
2023-02-12T17:05:05.632Z,30.90
2023-02-12T17:07:35.406Z,30.97
2023-02-12T17:10:04.666Z,31.32
2023-02-12T17:12:33.330Z,31.38
2023-02-12T17:15:06.062Z,31.42
2023-02-12T17:17:34.982Z,31.68
2023-02-12T17:20:03.825Z,31.59
2023-02-12T17:22:32.798Z,31.61
2023-02-12T17:25:01.049Z,31.54
2023-02-12T17:27:29.734Z,31.80
2023-02-12T17:29:58.015Z,32.10
2023-02-12T17:32:28.144Z,32.10
2023-02-12T17:34:56.550Z,31.94
2023-02-12T17:37:25.582Z,32.40
2023-02-12T17:39:55.383Z,32.58
2023-02-12T17:42:24.010Z,32.67
2023-02-12T17:44:52.457Z,32.62
2023-02-12T17:47:21.214Z,32.53
2023-02-12T17:49:51.065Z,32.44
2023-02-12T17:52:20.015Z,32.73
2023-02-12T17:54:49.133Z,32.71
2023-02-12T17:57:18.786Z,32.87
2023-02-12T17:59:47.257Z,32.63
2023-02-12T18:02:15.985Z,32.83
2023-02-12T18:04:44.418Z,33.25
2023-02-12T18:07:14.472Z,32.89
2023-02-12T18:09:42.927Z,33.08
2023-02-12T18:12:11.570Z,32.83
2023-02-12T18:14:40.040Z,33.11
2023-02-12T18:17:08.801Z,33.02
2023-02-12T18:19:37.252Z,33.03
2023-02-12T18:22:06.013Z,33.10
2023-02-12T18:24:36.620Z,32.86
2023-02-12T18:27:05.459Z,33.14
2023-02-12T18:29:33.824Z,33.54
2023-02-12T18:32:02.583Z,33.48
2023-02-12T18:34:30.907Z,33.55
2023-02-12T18:36:59.922Z,33.83
2023-02-12T18:39:29.565Z,33.66
2023-02-12T18:41:59.728Z,33.48
2023-02-12T18:44:28.084Z,33.70
2023-02-12T18:46:59.247Z,33.41
2023-02-12T18:49:28.007Z,33.42
2023-02-12T18:51:56.959Z,33.47
2023-02-12T18:54:25.320Z,33.52
2023-02-12T18:56:54.906Z,33.47
2023-02-12T18:59:27.134Z,33.29
2023-02-12T19:01:56.456Z,33.57
2023-02-12T19:04:27.900Z,33.72
2023-02-12T19:06:56.671Z,33.82
2023-02-12T19:09:26.832Z,33.69
2023-02-12T19:11:57.243Z,33.98
2023-02-12T19:14:27.891Z,33.81
2023-02-12T19:16:56.507Z,33.82
2023-02-12T19:19:25.344Z,33.98
2023-02-12T19:21:54.250Z,34.16
2023-02-12T19:24:23.144Z,34.16
2023-02-12T19:26:52.874Z,33.85
2023-02-12T19:29:21.938Z,34.20
2023-02-12T19:31:52.181Z,33.97
2023-02-12T19:34:22.375Z,34.17
2023-02-12T19:36:51.301Z,34.24
2023-02-12T19:39:21.945Z,34.32
2023-02-12T19:41:50.996Z,34.23
2023-02-12T19:44:21.088Z,34.23
2023-02-12T19:46:52.204Z,34.37
2023-02-12T19:49:22.515Z,33.99
2023-02-12T19:51:51.887Z,34.55
2023-02-12T19:54:21.613Z,34.96
2023-02-12T19:56:50.894Z,34.81
2023-02-12T19:59:21.125Z,34.91
2023-02-12T20:01:51.645Z,34.84
2023-02-12T20:04:21.809Z,35.22
2023-02-12T20:06:51.113Z,35.47
2023-02-12T20:09:21.132Z,35.38
2023-02-12T20:11:49.807Z,35.60
2023-02-12T20:14:21.039Z,35.50
2023-02-12T20:16:51.872Z,35.38
2023-02-12T20:19:22.605Z,35.22
2023-02-12T20:21:55.251Z,35.25
2023-02-12T20:24:25.570Z,35.07
2023-02-12T20:26:55.020Z,34.48
2023-02-12T20:29:23.576Z,34.66
2023-02-12T20:31:53.896Z,34.29
2023-02-12T20:34:22.400Z,34.69
2023-02-12T20:36:51.251Z,34.58
2023-02-12T20:39:21.298Z,34.42
2023-02-12T20:41:50.310Z,34.62
2023-02-12T20:44:20.757Z,34.70
2023-02-12T20:46:54.489Z,34.52
2023-02-12T20:49:26.751Z,34.21
2023-02-12T20:51:56.152Z,34.34
2023-02-12T20:54:24.975Z,34.24
2023-02-12T20:56:53.669Z,34.67
2023-02-12T20:59:21.845Z,34.26
2023-02-12T21:01:50.915Z,34.45
2023-02-12T21:04:20.376Z,34.52
2023-02-12T21:06:50.273Z,34.23
2023-02-12T21:09:20.087Z,34.51
2023-02-12T21:11:49.082Z,34.44
2023-02-12T21:14:22.567Z,34.05
2023-02-12T21:16:52.635Z,33.64
2023-02-12T21:19:21.608Z,34.04
2023-02-12T21:21:51.591Z,34.04
2023-02-12T21:24:22.057Z,33.88
2023-02-12T21:26:51.122Z,33.88
2023-02-12T21:29:20.377Z,33.75
2023-02-12T21:31:50.712Z,33.74
2023-02-12T21:34:21.337Z,33.54
2023-02-12T21:36:51.895Z,33.44
2023-02-12T21:39:26.269Z,33.52
2023-02-12T21:41:56.827Z,33.45
2023-02-12T21:44:25.932Z,33.84
2023-02-12T21:46:54.782Z,33.59
2023-02-12T21:49:28.030Z,33.43
2023-02-12T21:52:02.128Z,33.40
2023-02-12T21:54:31.114Z,33.57
2023-02-12T21:57:00.337Z,33.42
2023-02-12T21:59:31.750Z,33.74
2023-02-12T22:02:01.887Z,33.75
2023-02-12T22:04:30.612Z,33.85
2023-02-12T22:07:03.274Z,33.59
2023-02-12T22:09:31.918Z,33.67
2023-02-12T22:12:00.385Z,33.82
2023-02-12T22:14:28.710Z,33.81
2023-02-12T22:16:57.214Z,33.76
2023-02-12T22:19:25.521Z,33.92
2023-02-12T22:21:54.026Z,34.24
2023-02-12T22:24:23.660Z,33.95
2023-02-12T22:26:52.122Z,34.20
2023-02-12T22:29:22.769Z,34.27
2023-02-12T22:31:51.456Z,34.17
2023-02-12T22:34:20.494Z,33.71
2023-02-12T22:36:49.215Z,33.57
2023-02-12T22:39:18.759Z,34.00
2023-02-12T22:41:48.918Z,33.97
2023-02-12T22:44:20.058Z,34.09
2023-02-12T22:46:50.449Z,34.30
2023-02-12T22:49:18.951Z,34.18
2023-02-12T22:51:47.443Z,34.16
2023-02-12T22:54:16.669Z,34.27
2023-02-12T22:56:45.698Z,34.12
2023-02-12T22:59:15.262Z,33.81
2023-02-12T23:01:43.842Z,33.99
2023-02-12T23:04:16.120Z,33.91
2023-02-12T23:06:45.298Z,34.24
2023-02-12T23:09:15.360Z,34.19
2023-02-12T23:11:43.897Z,34.55
2023-02-12T23:14:12.315Z,34.47
2023-02-12T23:16:42.268Z,34.28
2023-02-12T23:19:11.767Z,34.16
2023-02-12T23:21:40.380Z,34.55
2023-02-12T23:24:09.028Z,34.30
2023-02-12T23:26:37.809Z,34.36
2023-02-12T23:29:06.066Z,34.46
2023-02-12T23:31:34.800Z,34.55
2023-02-12T23:34:04.469Z,34.48
2023-02-12T23:36:33.218Z,34.48
2023-02-12T23:39:01.448Z,34.59
2023-02-12T23:41:29.907Z,34.64
2023-02-12T23:43:59.650Z,34.38
2023-02-12T23:46:28.137Z,34.39
2023-02-12T23:48:56.446Z,34.24
2023-02-12T23:51:26.340Z,34.13
2023-02-12T23:53:54.634Z,33.90
2023-02-12T23:56:23.242Z,34.10
2023-02-12T23:58:51.727Z,34.24
